sensor_id;sensor_type;location;lat;lon;timestamp;pressure;altitude;pressure_sealevel;temperature;humidity
48364;BME280;34170;54.364;18.582;2023-02-17T00:01:29;100266.41;;;8.64;100.00
48364;BME280;34170;54.364;18.582;2023-02-17T00:03:57;100270.69;;;8.13;100.00
48364;BME280;34170;54.364;18.582;2023-02-17T00:06:27;100278.84;;;8.44;100.00
48364;BME280;34170;54.364;18.582;2023-02-17T00:08:55;100283.53;;;8.52;100.00
48364;BME280;34170;54.364;18.582;2023-02-17T00:11:23;100277.03;;;8.33;100.00
48364;BME280;34170;54.364;18.582;2023-02-17T00:13:50;100275.09;;;8.14;100.00
48364;BME280;34170;54.364;18.582;2023-02-17T00:16:24;100264.75;;;8.31;100.00
48364;BME280;34170;54.364;18.582;2023-02-17T00:19:01;100261.88;;;8.23;100.00
48364;BME280;34170;54.364;18.582;2023-02-17T00:21:30;100268.69;;;8.27;100.00
48364;BME280;34170;54.364;18.582;2023-02-17T00:23:58;100258.09;;;8.25;100.00
48364;BME280;34170;54.364;18.582;2023-02-17T00:26:26;100267.63;;;7.97;100.00
48364;BME280;34170;54.364;18.582;2023-02-17T00:28:53;100254.56;;;8.04;100.00
48364;BME280;34170;54.364;18.582;2023-02-17T00:31:22;100259.81;;;8.05;100.00
48364;BME280;34170;54.364;18.582;2023-02-17T00:33:53;100260.72;;;7.94;100.00
48364;BME280;34170;54.364;18.582;2023-02-17T00:36:23;100263.19;;;8.07;100.00
48364;BME280;34170;54.364;18.582;2023-02-17T00:38:53;100253.31;;;8.29;100.00
48364;BME280;34170;54.364;18.582;2023-02-17T00:41:21;100245.81;;;8.23;100.00
48364;BME280;34170;54.364;18.582;2023-02-17T00:43:49;100244.50;;;8.17;100.00
48364;BME280;34170;54.364;18.582;2023-02-17T00:46:17;100233.91;;;8.15;100.00
48364;BME280;34170;54.364;18.582;2023-02-17T00:48:45;100242.56;;;7.98;100.00
48364;BME280;34170;54.364;18.582;2023-02-17T00:51:14;100244.91;;;8.12;100.00
48364;BME280;34170;54.364;18.582;2023-02-17T00:53:43;100228.13;;;8.10;100.00
48364;BME280;34170;54.364;18.582;2023-02-17T00:56:11;100240.19;;;8.05;100.00
48364;BME280;34170;54.364;18.582;2023-02-17T00:58:39;100220.31;;;7.86;100.00
48364;BME280;34170;54.364;18.582;2023-02-17T01:01:09;100225.16;;;8.13;100.00
48364;BME280;34170;54.364;18.582;2023-02-17T01:03:39;100211.31;;;8.08;100.00
48364;BME280;34170;54.364;18.582;2023-02-17T01:06:11;100211.00;;;7.80;100.00
48364;BME280;34170;54.364;18.582;2023-02-17T01:08:41;100209.81;;;7.73;100.00
48364;BME280;34170;54.364;18.582;2023-02-17T01:11:16;100209.16;;;8.02;100.00
48364;BME280;34170;54.364;18.582;2023-02-17T01:13:43;100204.94;;;7.99;100.00
48364;BME280;34170;54.364;18.582;2023-02-17T01:16:23;100203.94;;;8.21;100.00
48364;BME280;34170;54.364;18.582;2023-02-17T01:18:51;100207.91;;;8.27;100.00
48364;BME280;34170;54.364;18.582;2023-02-17T01:21:24;100212.50;;;7.94;100.00
48364;BME280;34170;54.364;18.582;2023-02-17T01:23:54;100194.03;;;8.12;100.00
48364;BME280;34170;54.364;18.582;2023-02-17T01:26:24;100202.63;;;7.95;100.00
48364;BME280;34170;54.364;18.582;2023-02-17T01:28:53;100193.22;;;7.79;100.00
48364;BME280;34170;54.364;18.582;2023-02-17T01:31:21;100208.00;;;7.95;100.00
48364;BME280;34170;54.364;18.582;2023-02-17T01:33:49;100198.00;;;7.97;100.00
48364;BME280;34170;54.364;18.582;2023-02-17T01:36:18;100199.09;;;8.15;100.00
48364;BME280;34170;54.364;18.582;2023-02-17T01:38:45;100196.31;;;7.96;100.00
48364;BME280;34170;54.364;18.582;2023-02-17T01:41:14;100189.56;;;7.80;100.00
48364;BME280;34170;54.364;18.582;2023-02-17T01:43:42;100180.81;;;7.78;100.00
48364;BME280;34170;54.364;18.582;2023-02-17T01:46:09;100195.56;;;7.94;100.00
48364;BME280;34170;54.364;18.582;2023-02-17T01:51:12;100203.81;;;8.02;100.00
48364;BME280;34170;54.364;18.582;2023-02-17T01:53:49;100193.44;;;7.88;100.00
48364;BME280;34170;54.364;18.582;2023-02-17T01:56:22;100199.59;;;7.99;100.00
48364;BME280;34170;54.364;18.582;2023-02-17T01:58:56;100188.56;;;7.81;100.00
48364;BME280;34170;54.364;18.582;2023-02-17T02:01:27;100192.47;;;7.89;100.00
48364;BME280;34170;54.364;18.582;2023-02-17T02:03:57;100189.75;;;8.10;100.00
48364;BME280;34170;54.364;18.582;2023-02-17T02:06:27;100188.72;;;8.01;100.00
48364;BME280;34170;54.364;18.582;2023-02-17T02:09:11;100184.41;;;8.10;100.00
48364;BME280;34170;54.364;18.582;2023-02-17T02:11:41;100187.06;;;8.31;100.00
48364;BME280;34170;54.364;18.582;2023-02-17T02:14:09;100174.47;;;8.00;100.00
48364;BME280;34170;54.364;18.582;2023-02-17T02:16:59;100176.22;;;8.11;100.00
48364;BME280;34170;54.364;18.582;2023-02-17T02:34:03;100167.19;;;8.33;100.00
48364;BME280;34170;54.364;18.582;2023-02-17T02:36:59;100156.28;;;8.25;100.00
48364;BME280;34170;54.364;18.582;2023-02-17T02:39:30;100164.47;;;8.24;100.00
48364;BME280;34170;54.364;18.582;2023-02-17T02:42:06;100149.56;;;8.10;100.00
48364;BME280;34170;54.364;18.582;2023-02-17T02:44:35;100148.38;;;8.24;100.00
48364;BME280;34170;54.364;18.582;2023-02-17T02:50:12;100138.34;;;8.16;100.00
48364;BME280;34170;54.364;18.582;2023-02-17T02:58:21;100143.63;;;8.37;100.00
48364;BME280;34170;54.364;18.582;2023-02-17T03:01:02;100133.28;;;8.44;100.00
48364;BME280;34170;54.364;18.582;2023-02-17T03:03:45;100126.56;;;8.59;100.00
48364;BME280;34170;54.364;18.582;2023-02-17T03:06:25;100122.56;;;8.44;100.00
48364;BME280;34170;54.364;18.582;2023-02-17T03:09:02;100124.47;;;8.63;100.00
48364;BME280;34170;54.364;18.582;2023-02-17T03:11:31;100109.91;;;8.55;100.00
48364;BME280;34170;54.364;18.582;2023-02-17T03:14:07;100106.25;;;8.66;100.00
48364;BME280;34170;54.364;18.582;2023-02-17T03:16:37;100110.97;;;8.84;100.00
48364;BME280;34170;54.364;18.582;2023-02-17T03:19:05;100106.00;;;8.89;100.00
48364;BME280;34170;54.364;18.582;2023-02-17T03:21:37;100104.06;;;8.91;100.00
48364;BME280;34170;54.364;18.582;2023-02-17T03:24:05;100105.78;;;9.02;100.00
48364;BME280;34170;54.364;18.582;2023-02-17T03:26:33;100104.91;;;9.01;100.00
48364;BME280;34170;54.364;18.582;2023-02-17T03:29:00;100101.09;;;8.84;100.00
48364;BME280;34170;54.364;18.582;2023-02-17T03:31:28;100111.66;;;8.86;100.00
48364;BME280;34170;54.364;18.582;2023-02-17T03:33:57;100104.03;;;8.81;100.00
48364;BME280;34170;54.364;18.582;2023-02-17T03:36:25;100090.50;;;8.92;100.00
48364;BME280;34170;54.364;18.582;2023-02-17T03:38:53;100094.75;;;8.95;100.00
48364;BME280;34170;54.364;18.582;2023-02-17T03:41:20;100091.09;;;9.06;100.00
48364;BME280;34170;54.364;18.582;2023-02-17T03:43:48;100087.44;;;9.07;100.00
48364;BME280;34170;54.364;18.582;2023-02-17T03:46:17;100101.81;;;9.06;100.00
48364;BME280;34170;54.364;18.582;2023-02-17T03:48:44;100102.94;;;9.13;100.00
48364;BME280;34170;54.364;18.582;2023-02-17T03:51:13;100102.09;;;9.03;100.00
48364;BME280;34170;54.364;18.582;2023-02-17T03:53:42;100090.22;;;9.15;100.00
48364;BME280;34170;54.364;18.582;2023-02-17T03:56:10;100092.22;;;9.13;100.00
48364;BME280;34170;54.364;18.582;2023-02-17T03:58:39;100095.72;;;8.94;100.00
48364;BME280;34170;54.364;18.582;2023-02-17T04:01:08;100085.72;;;8.96;100.00
48364;BME280;34170;54.364;18.582;2023-02-17T04:03:37;100087.25;;;8.99;100.00
48364;BME280;34170;54.364;18.582;2023-02-17T04:06:05;100094.75;;;9.05;100.00
48364;BME280;34170;54.364;18.582;2023-02-17T04:08:33;100094.03;;;9.03;100.00
48364;BME280;34170;54.364;18.582;2023-02-17T04:11:02;100094.47;;;9.08;100.00
48364;BME280;34170;54.364;18.582;2023-02-17T04:13:30;100083.19;;;9.14;100.00
48364;BME280;34170;54.364;18.582;2023-02-17T04:15:58;100079.94;;;9.10;100.00
48364;BME280;34170;54.364;18.582;2023-02-17T04:18:27;100079.50;;;9.15;100.00
48364;BME280;34170;54.364;18.582;2023-02-17T04:20:55;100072.16;;;9.07;100.00
48364;BME280;34170;54.364;18.582;2023-02-17T04:23:22;100074.13;;;8.95;100.00
48364;BME280;34170;54.364;18.582;2023-02-17T04:25:50;100072.72;;;8.91;100.00
48364;BME280;34170;54.364;18.582;2023-02-17T04:28:17;100070.84;;;8.63;100.00
48364;BME280;34170;54.364;18.582;2023-02-17T04:30:46;100080.47;;;8.75;100.00
48364;BME280;34170;54.364;18.582;2023-02-17T04:33:14;100071.81;;;8.52;100.00
48364;BME280;34170;54.364;18.582;2023-02-17T04:35:42;100074.22;;;8.55;100.00
48364;BME280;34170;54.364;18.582;2023-02-17T04:38:10;100079.41;;;8.56;100.00
48364;BME280;34170;54.364;18.582;2023-02-17T04:40:38;100080.44;;;8.55;100.00
48364;BME280;34170;54.364;18.582;2023-02-17T04:43:05;100075.81;;;8.77;100.00
48364;BME280;34170;54.364;18.582;2023-02-17T04:45:35;100079.41;;;8.56;100.00
48364;BME280;34170;54.364;18.582;2023-02-17T04:48:03;100069.00;;;8.63;100.00
48364;BME280;34170;54.364;18.582;2023-02-17T04:50:31;100053.94;;;8.72;100.00
48364;BME280;34170;54.364;18.582;2023-02-17T04:52:58;100062.38;;;8.57;100.00
48364;BME280;34170;54.364;18.582;2023-02-17T04:55:26;100057.56;;;8.71;100.00
48364;BME280;34170;54.364;18.582;2023-02-17T04:57:53;100046.03;;;8.80;100.00
48364;BME280;34170;54.364;18.582;2023-02-17T05:00:21;100036.72;;;8.84;100.00
48364;BME280;34170;54.364;18.582;2023-02-17T05:02:48;100046.03;;;8.80;100.00
48364;BME280;34170;54.364;18.582;2023-02-17T05:05:16;100052.38;;;8.79;100.00
48364;BME280;34170;54.364;18.582;2023-02-17T05:07:45;100050.97;;;8.75;100.00
48364;BME280;34170;54.364;18.582;2023-02-17T05:10:14;100051.25;;;8.72;100.00
48364;BME280;34170;54.364;18.582;2023-02-17T05:12:41;100045.88;;;8.72;100.00
48364;BME280;34170;54.364;18.582;2023-02-17T05:15:10;100051.13;;;8.93;100.00
48364;BME280;34170;54.364;18.582;2023-02-17T05:17:38;100042.94;;;8.75;100.00
48364;BME280;34170;54.364;18.582;2023-02-17T05:20:06;100036.31;;;8.69;100.00
48364;BME280;34170;54.364;18.582;2023-02-17T05:22:34;100036.94;;;8.42;100.00
48364;BME280;34170;54.364;18.582;2023-02-17T05:25:02;100038.25;;;8.57;100.00
48364;BME280;34170;54.364;18.582;2023-02-17T05:27:29;100026.94;;;8.54;100.00
48364;BME280;34170;54.364;18.582;2023-02-17T05:29:57;100043.88;;;8.54;100.00
48364;BME280;34170;54.364;18.582;2023-02-17T05:32:24;100039.38;;;8.65;100.00
48364;BME280;34170;54.364;18.582;2023-02-17T05:34:52;100033.03;;;8.56;100.00
48364;BME280;34170;54.364;18.582;2023-02-17T05:37:19;100041.53;;;8.30;100.00
48364;BME280;34170;54.364;18.582;2023-02-17T05:39:47;100035.88;;;8.33;100.00
48364;BME280;34170;54.364;18.582;2023-02-17T05:42:14;100039.97;;;8.28;100.00
48364;BME280;34170;54.364;18.582;2023-02-17T05:44:42;100044.66;;;8.35;100.00
48364;BME280;34170;54.364;18.582;2023-02-17T05:47:09;100027.78;;;8.54;100.00
48364;BME280;34170;54.364;18.582;2023-02-17T05:49:37;100028.94;;;8.52;100.00
48364;BME280;34170;54.364;18.582;2023-02-17T05:52:04;100021.38;;;8.36;100.00
48364;BME280;34170;54.364;18.582;2023-02-17T05:54:32;100030.00;;;8.39;100.00
48364;BME280;34170;54.364;18.582;2023-02-17T05:56:59;100019.16;;;8.41;100.00
48364;BME280;34170;54.364;18.582;2023-02-17T05:59:27;100009.41;;;8.40;100.00
48364;BME280;34170;54.364;18.582;2023-02-17T06:01:54;100004.31;;;8.37;100.00
48364;BME280;34170;54.364;18.582;2023-02-17T06:04:22;100012.50;;;8.35;100.00
48364;BME280;34170;54.364;18.582;2023-02-17T06:06:49;100007.63;;;8.50;100.00
48364;BME280;34170;54.364;18.582;2023-02-17T06:09:17;100008.03;;;8.46;100.00
48364;BME280;34170;54.364;18.582;2023-02-17T06:11:44;100004.81;;;8.62;100.00
48364;BME280;34170;54.364;18.582;2023-02-17T06:14:12;100000.72;;;8.67;100.00
48364;BME280;34170;54.364;18.582;2023-02-17T06:16:39;99989.72;;;8.61;100.00
48364;BME280;34170;54.364;18.582;2023-02-17T06:19:06;99999.75;;;8.58;100.00
48364;BME280;34170;54.364;18.582;2023-02-17T06:21:34;99993.72;;;8.26;100.00
48364;BME280;34170;54.364;18.582;2023-02-17T06:24:01;99980.59;;;8.23;100.00
48364;BME280;34170;54.364;18.582;2023-02-17T06:26:28;99984.00;;;8.25;100.00
48364;BME280;34170;54.364;18.582;2023-02-17T06:28:56;99978.72;;;8.54;100.00
48364;BME280;34170;54.364;18.582;2023-02-17T06:31:23;99980.00;;;8.19;100.00
48364;BME280;34170;54.364;18.582;2023-02-17T06:33:51;99978.38;;;8.37;100.00
48364;BME280;34170;54.364;18.582;2023-02-17T06:36:19;99983.34;;;8.42;100.00
48364;BME280;34170;54.364;18.582;2023-02-17T06:38:46;99989.38;;;8.34;100.00
48364;BME280;34170;54.364;18.582;2023-02-17T06:41:13;99971.06;;;8.49;100.00
48364;BME280;34170;54.364;18.582;2023-02-17T06:43:41;99975.34;;;8.71;100.00
48364;BME280;34170;54.364;18.582;2023-02-17T06:46:08;99983.22;;;8.63;100.00
48364;BME280;34170;54.364;18.582;2023-02-17T06:48:36;99988.31;;;8.76;100.00
48364;BME280;34170;54.364;18.582;2023-02-17T06:51:04;99984.38;;;8.80;100.00
48364;BME280;34170;54.364;18.582;2023-02-17T06:53:31;99985.63;;;8.95;100.00
48364;BME280;34170;54.364;18.582;2023-02-17T06:55:59;99992.84;;;8.95;100.00
48364;BME280;34170;54.364;18.582;2023-02-17T06:58:26;99983.38;;;8.81;100.00
48364;BME280;34170;54.364;18.582;2023-02-17T07:00:53;99979.41;;;8.46;100.00
48364;BME280;34170;54.364;18.582;2023-02-17T07:03:21;99974.75;;;8.77;100.00
48364;BME280;34170;54.364;18.582;2023-02-17T07:05:48;99962.19;;;8.97;100.00
48364;BME280;34170;54.364;18.582;2023-02-17T07:08:16;99956.38;;;9.22;100.00
48364;BME280;34170;54.364;18.582;2023-02-17T07:10:43;99959.16;;;9.30;100.00
48364;BME280;34170;54.364;18.582;2023-02-17T07:13:11;99960.59;;;9.24;100.00
48364;BME280;34170;54.364;18.582;2023-02-17T07:15:38;99955.28;;;8.85;100.00
48364;BME280;34170;54.364;18.582;2023-02-17T07:18:06;99953.56;;;8.94;100.00
48364;BME280;34170;54.364;18.582;2023-02-17T07:20:33;99946.66;;;9.01;100.00
48364;BME280;34170;54.364;18.582;2023-02-17T07:23:00;99956.38;;;9.22;100.00
48364;BME280;34170;54.364;18.582;2023-02-17T07:25:28;99956.66;;;9.28;100.00
48364;BME280;34170;54.364;18.582;2023-02-17T07:27:56;99949.81;;;9.44;100.00
48364;BME280;34170;54.364;18.582;2023-02-17T07:30:23;99951.53;;;9.35;100.00
48364;BME280;34170;54.364;18.582;2023-02-17T07:32:50;99948.03;;;9.15;100.00
48364;BME280;34170;54.364;18.582;2023-02-17T07:35:18;99942.91;;;9.31;100.00
48364;BME280;34170;54.364;18.582;2023-02-17T07:37:45;99948.63;;;9.09;100.00
48364;BME280;34170;54.364;18.582;2023-02-17T07:40:13;99942.81;;;9.13;100.00
48364;BME280;34170;54.364;18.582;2023-02-17T07:42:40;99925.06;;;9.03;100.00
48364;BME280;34170;54.364;18.582;2023-02-17T07:45:07;99920.56;;;8.74;100.00
48364;BME280;34170;54.364;18.582;2023-02-17T07:47:35;99921.72;;;8.91;100.00
48364;BME280;34170;54.364;18.582;2023-02-17T07:50:03;99915.47;;;8.90;100.00
48364;BME280;34170;54.364;18.582;2023-02-17T07:52:31;99907.94;;;9.23;100.00
48364;BME280;34170;54.364;18.582;2023-02-17T07:54:58;99902.44;;;9.25;100.00
48364;BME280;34170;54.364;18.582;2023-02-17T07:57:26;99898.28;;;8.64;100.00
48364;BME280;34170;54.364;18.582;2023-02-17T07:59:53;99889.03;;;9.15;100.00
48364;BME280;34170;54.364;18.582;2023-02-17T08:02:21;99887.66;;;9.39;100.00
48364;BME280;34170;54.364;18.582;2023-02-17T08:04:50;99885.69;;;9.41;100.00
48364;BME280;34170;54.364;18.582;2023-02-17T08:07:18;99879.59;;;9.01;100.00
48364;BME280;34170;54.364;18.582;2023-02-17T08:09:45;99862.06;;;9.16;100.00
48364;BME280;34170;54.364;18.582;2023-02-17T08:12:32;99864.47;;;9.47;100.00
48364;BME280;34170;54.364;18.582;2023-02-17T08:15:34;99862.94;;;8.97;100.00
48364;BME280;34170;54.364;18.582;2023-02-17T08:18:02;99859.47;;;8.87;100.00
48364;BME280;34170;54.364;18.582;2023-02-17T08:20:31;99854.78;;;9.37;100.00
48364;BME280;34170;54.364;18.582;2023-02-17T08:23:01;99850.72;;;9.23;100.00
48364;BME280;34170;54.364;18.582;2023-02-17T08:25:33;99844.84;;;8.62;100.00
48364;BME280;34170;54.364;18.582;2023-02-17T08:28:03;99843.84;;;8.34;100.00
48364;BME280;34170;54.364;18.582;2023-02-17T08:30:34;99854.84;;;8.70;100.00
48364;BME280;34170;54.364;18.582;2023-02-17T08:33:04;99842.59;;;9.14;100.00
48364;BME280;34170;54.364;18.582;2023-02-17T08:35:31;99843.75;;;8.92;100.00
48364;BME280;34170;54.364;18.582;2023-02-17T08:37:59;99840.09;;;8.93;100.00
48364;BME280;34170;54.364;18.582;2023-02-17T08:40:27;99845.34;;;9.32;100.00
48364;BME280;34170;54.364;18.582;2023-02-17T08:42:55;99838.41;;;8.92;100.00
48364;BME280;34170;54.364;18.582;2023-02-17T08:45:22;99843.09;;;9.28;100.00
48364;BME280;34170;54.364;18.582;2023-02-17T08:47:50;99826.22;;;9.08;100.00
48364;BME280;34170;54.364;18.582;2023-02-17T08:50:17;99830.91;;;9.33;100.00
48364;BME280;34170;54.364;18.582;2023-02-17T08:52:46;99818.28;;;8.78;100.00
48364;BME280;34170;54.364;18.582;2023-02-17T08:55:13;99824.09;;;8.35;100.00
48364;BME280;34170;54.364;18.582;2023-02-17T08:57:41;99815.81;;;8.95;100.00
48364;BME280;34170;54.364;18.582;2023-02-17T09:00:09;99808.88;;;8.45;100.00
48364;BME280;34170;54.364;18.582;2023-02-17T09:02:37;99812.38;;;8.65;100.00
48364;BME280;34170;54.364;18.582;2023-02-17T09:05:04;99789.41;;;8.24;100.00
48364;BME280;34170;54.364;18.582;2023-02-17T09:07:32;99800.56;;;8.48;100.00
48364;BME280;34170;54.364;18.582;2023-02-17T09:09:59;99795.28;;;8.76;100.00
48364;BME280;34170;54.364;18.582;2023-02-17T09:12:27;99795.22;;;8.48;100.00
48364;BME280;34170;54.364;18.582;2023-02-17T09:14:54;99785.78;;;8.44;100.00
48364;BME280;34170;54.364;18.582;2023-02-17T09:17:22;99799.94;;;8.74;100.00
48364;BME280;34170;54.364;18.582;2023-02-17T09:19:50;99786.31;;;8.38;100.00
48364;BME280;34170;54.364;18.582;2023-02-17T09:22:18;99778.56;;;8.15;100.00
48364;BME280;34170;54.364;18.582;2023-02-17T09:24:58;99769.69;;;8.44;100.00
48364;BME280;34170;54.364;18.582;2023-02-17T09:27:25;99777.16;;;8.50;100.00
48364;BME280;34170;54.364;18.582;2023-02-17T09:29:53;99776.50;;;8.76;100.00
48364;BME280;34170;54.364;18.582;2023-02-17T09:32:20;99779.78;;;8.60;100.00
48364;BME280;34170;54.364;18.582;2023-02-17T09:34:48;99768.44;;;8.09;100.00
48364;BME280;34170;54.364;18.582;2023-02-17T09:37:21;99767.13;;;8.33;100.00
48364;BME280;34170;54.364;18.582;2023-02-17T09:39:50;99758.81;;;8.55;100.00
48364;BME280;34170;54.364;18.582;2023-02-17T09:42:21;99764.72;;;8.49;100.00
48364;BME280;34170;54.364;18.582;2023-02-17T09:44:53;99750.84;;;7.87;100.00
48364;BME280;34170;54.364;18.582;2023-02-17T09:47:28;99740.47;;;8.41;100.00
48364;BME280;34170;54.364;18.582;2023-02-17T09:50:02;99742.31;;;8.88;100.00
48364;BME280;34170;54.364;18.582;2023-02-17T10:00:37;99699.13;;;8.91;100.00
48364;BME280;34170;54.364;18.582;2023-02-17T10:05:44;99694.00;;;8.70;100.00
48364;BME280;34170;54.364;18.582;2023-02-17T10:08:21;99686.88;;;9.06;100.00
48364;BME280;34170;54.364;18.582;2023-02-17T10:11:03;99677.16;;;9.05;100.00
48364;BME280;34170;54.364;18.582;2023-02-17T10:13:35;99679.66;;;9.34;100.00
48364;BME280;34170;54.364;18.582;2023-02-17T10:16:07;99674.44;;;8.87;100.00
48364;BME280;34170;54.364;18.582;2023-02-17T10:18:44;99667.31;;;9.24;100.00
48364;BME280;34170;54.364;18.582;2023-02-17T10:21:18;99668.09;;;8.61;100.00
48364;BME280;34170;54.364;18.582;2023-02-17T10:23:50;99654.13;;;9.30;100.00
48364;BME280;34170;54.364;18.582;2023-02-17T10:26:46;99644.16;;;9.77;100.00
48364;BME280;34170;54.364;18.582;2023-02-17T10:35:22;99623.31;;;9.34;100.00
48364;BME280;34170;54.364;18.582;2023-02-17T10:38:14;99627.97;;;9.32;100.00
48364;BME280;34170;54.364;18.582;2023-02-17T10:40:45;99615.16;;;9.26;100.00
48364;BME280;34170;54.364;18.582;2023-02-17T10:43:20;99614.94;;;9.02;100.00
48364;BME280;34170;54.364;18.582;2023-02-17T10:45:49;99584.91;;;9.16;100.00
48364;BME280;34170;54.364;18.582;2023-02-17T10:48:20;99590.41;;;8.96;100.00
48364;BME280;34170;54.364;18.582;2023-02-17T10:50:49;99578.31;;;9.10;100.00
48364;BME280;34170;54.364;18.582;2023-02-17T10:53:18;99561.50;;;9.08;100.00
48364;BME280;34170;54.364;18.582;2023-02-17T11:01:16;99530.28;;;9.43;100.00
48364;BME280;34170;54.364;18.582;2023-02-17T11:03:43;99534.44;;;9.38;100.00
48364;BME280;34170;54.364;18.582;2023-02-17T11:06:21;99524.81;;;9.09;100.00
48364;BME280;34170;54.364;18.582;2023-02-17T11:08:51;99523.22;;;9.42;100.00
48364;BME280;34170;54.364;18.582;2023-02-17T11:11:28;99517.72;;;9.44;100.00
48364;BME280;34170;54.364;18.582;2023-02-17T11:16:39;99509.44;;;8.93;100.00
48364;BME280;34170;54.364;18.582;2023-02-17T11:19:26;99489.47;;;9.13;100.00
48364;BME280;34170;54.364;18.582;2023-02-17T11:21:57;99483.97;;;9.15;100.00
48364;BME280;34170;54.364;18.582;2023-02-17T11:24:25;99500.28;;;9.22;100.00
48364;BME280;34170;54.364;18.582;2023-02-17T11:27:03;99482.00;;;9.43;100.00
48364;BME280;34170;54.364;18.582;2023-02-17T11:29:31;99477.09;;;9.65;100.00
48364;BME280;34170;54.364;18.582;2023-02-17T11:32:06;99462.19;;;9.18;100.00
48364;BME280;34170;54.364;18.582;2023-02-17T11:34:37;99458.88;;;8.62;100.00
48364;BME280;34170;54.364;18.582;2023-02-17T11:39:44;99434.72;;;9.24;100.00
48364;BME280;34170;54.364;18.582;2023-02-17T11:42:22;99429.94;;;9.10;100.00
48364;BME280;34170;54.364;18.582;2023-02-17T11:44:53;99427.69;;;9.23;100.00
48364;BME280;34170;54.364;18.582;2023-02-17T11:47:47;99420.44;;;8.53;100.00
48364;BME280;34170;54.364;18.582;2023-02-17T11:50:39;99406.25;;;8.79;100.00
48364;BME280;34170;54.364;18.582;2023-02-17T11:53:25;99405.59;;;9.03;100.00
48364;BME280;34170;54.364;18.582;2023-02-17T11:56:02;99397.66;;;8.75;100.00
48364;BME280;34170;54.364;18.582;2023-02-17T12:18:21;99361.31;;;9.25;100.00
48364;BME280;34170;54.364;18.582;2023-02-17T12:21:08;99356.75;;;8.91;100.00
48364;BME280;34170;54.364;18.582;2023-02-17T12:23:48;99341.31;;;9.20;100.00
48364;BME280;34170;54.364;18.582;2023-02-17T12:32:12;99328.97;;;9.01;100.00
48364;BME280;34170;54.364;18.582;2023-02-17T12:34:56;99313.16;;;8.89;100.00
48364;BME280;34170;54.364;18.582;2023-02-17T12:37:31;99322.41;;;8.95;100.00
48364;BME280;34170;54.364;18.582;2023-02-17T12:40:09;99303.16;;;8.73;100.00
48364;BME280;34170;54.364;18.582;2023-02-17T12:42:51;99288.06;;;8.28;100.00
48364;BME280;34170;54.364;18.582;2023-02-17T12:45:21;99280.94;;;8.81;100.00
48364;BME280;34170;54.364;18.582;2023-02-17T12:53:05;99255.84;;;8.90;100.00
48364;BME280;34170;54.364;18.582;2023-02-17T12:55:44;99253.28;;;9.15;100.00
48364;BME280;34170;54.364;18.582;2023-02-17T12:58:17;99262.13;;;9.07;100.00
48364;BME280;34170;54.364;18.582;2023-02-17T13:00:49;99254.97;;;9.24;100.00
48364;BME280;34170;54.364;18.582;2023-02-17T13:03:19;99237.44;;;8.95;100.00
48364;BME280;34170;54.364;18.582;2023-02-17T13:05:47;99238.72;;;9.18;100.00
48364;BME280;34170;54.364;18.582;2023-02-17T13:08:34;99231.84;;;9.23;100.00
48364;BME280;34170;54.364;18.582;2023-02-17T13:11:09;99217.31;;;8.91;100.00
48364;BME280;34170;54.364;18.582;2023-02-17T13:13:37;99210.75;;;8.86;100.00
48364;BME280;34170;54.364;18.582;2023-02-17T13:16:13;99188.84;;;8.99;100.00
48364;BME280;34170;54.364;18.582;2023-02-17T13:18:47;99174.78;;;8.96;100.00
48364;BME280;34170;54.364;18.582;2023-02-17T13:24:11;99159.84;;;8.51;100.00
48364;BME280;34170;54.364;18.582;2023-02-17T13:26:43;99158.94;;;8.77;100.00
48364;BME280;34170;54.364;18.582;2023-02-17T13:31:59;99143.88;;;8.84;100.00
48364;BME280;34170;54.364;18.582;2023-02-17T13:34:37;99127.13;;;8.90;100.00
48364;BME280;34170;54.364;18.582;2023-02-17T13:40:00;99091.50;;;8.21;100.00
48364;BME280;34170;54.364;18.582;2023-02-17T13:45:01;99079.84;;;8.38;100.00
48364;BME280;34170;54.364;18.582;2023-02-17T13:47:37;99066.78;;;8.70;100.00
48364;BME280;34170;54.364;18.582;2023-02-17T13:50:35;99067.66;;;8.87;100.00
48364;BME280;34170;54.364;18.582;2023-02-17T13:53:26;99070.53;;;9.02;100.00
48364;BME280;34170;54.364;18.582;2023-02-17T13:55:58;99061.31;;;8.45;100.00
48364;BME280;34170;54.364;18.582;2023-02-17T13:58:31;99046.38;;;8.93;100.00
48364;BME280;34170;54.364;18.582;2023-02-17T14:01:00;99056.06;;;8.70;100.00
48364;BME280;34170;54.364;18.582;2023-02-17T14:03:44;99050.53;;;8.80;100.00
48364;BME280;34170;54.364;18.582;2023-02-17T14:08:49;99038.00;;;8.88;100.00
48364;BME280;34170;54.364;18.582;2023-02-17T14:11:19;99036.41;;;8.53;100.00
48364;BME280;34170;54.364;18.582;2023-02-17T14:13:49;99039.84;;;8.88;100.00
48364;BME280;34170;54.364;18.582;2023-02-17T14:19:08;99038.38;;;9.02;100.00
48364;BME280;34170;54.364;18.582;2023-02-17T14:21:38;99043.06;;;9.08;100.00
48364;BME280;34170;54.364;18.582;2023-02-17T14:24:06;99018.94;;;9.16;100.00
48364;BME280;34170;54.364;18.582;2023-02-17T14:26:40;99024.97;;;9.34;100.00
48364;BME280;34170;54.364;18.582;2023-02-17T14:29:09;99021.44;;;9.18;100.00
48364;BME280;34170;54.364;18.582;2023-02-17T14:31:42;99013.06;;;9.12;100.00
48364;BME280;34170;54.364;18.582;2023-02-17T14:34:30;98993.78;;;9.01;100.00
48364;BME280;34170;54.364;18.582;2023-02-17T14:37:19;98967.63;;;9.03;100.00
48364;BME280;34170;54.364;18.582;2023-02-17T14:39:49;98946.50;;;8.75;100.00
48364;BME280;34170;54.364;18.582;2023-02-17T14:42:17;98937.63;;;8.74;100.00
48364;BME280;34170;54.364;18.582;2023-02-17T14:44:44;98935.59;;;9.01;100.00